createdAt,value
2018-07-26T00:00:18.267Z,2.30
2018-07-26T00:02:46.555Z,2.17
2018-07-26T00:05:14.601Z,2.73
2018-07-26T00:07:42.126Z,2.50
2018-07-26T00:10:09.629Z,2.20
2018-07-26T00:12:38.832Z,2.20
2018-07-26T00:15:09.048Z,2.10
2018-07-26T00:20:27.539Z,2.33
2018-07-26T00:22:55.413Z,2.20
2018-07-26T00:25:24.504Z,2.27
2018-07-26T00:27:52.548Z,2.20
2018-07-26T00:30:19.852Z,2.40
2018-07-26T00:32:47.254Z,2.80
2018-07-26T00:35:14.819Z,2.00
2018-07-26T00:37:42.721Z,2.77
2018-07-26T00:40:10.063Z,2.73
2018-07-26T00:42:38.961Z,2.80
2018-07-26T00:45:07.133Z,2.80
2018-07-26T00:47:34.579Z,2.57
2018-07-26T00:50:01.906Z,2.87
2018-07-26T00:52:29.297Z,2.47
2018-07-26T00:54:56.916Z,2.57
2018-07-26T00:57:24.420Z,2.53
2018-07-26T00:59:53.169Z,1.97
2018-07-26T01:02:20.685Z,2.63
2018-07-26T01:04:48.140Z,2.50
2018-07-26T01:07:15.731Z,2.97
2018-07-26T01:09:44.713Z,2.77
2018-07-26T01:12:12.155Z,3.13
2018-07-26T01:14:39.515Z,2.37
2018-07-26T01:17:06.960Z,2.83
2018-07-26T01:19:34.497Z,3.60
2018-07-26T01:22:02.546Z,3.20
2018-07-26T01:24:30.767Z,3.30
2018-07-26T01:26:58.467Z,3.37
2018-07-26T01:29:25.924Z,3.20
2018-07-26T01:31:54.076Z,3.40
2018-07-26T01:34:22.873Z,3.50
2018-07-26T01:36:50.676Z,2.97
2018-07-26T01:39:20.451Z,3.30
2018-07-26T01:41:48.291Z,3.30
2018-07-26T01:44:24.105Z,3.30
2018-07-26T01:46:52.327Z,3.30
2018-07-26T01:49:22.770Z,3.50
2018-07-26T01:51:50.668Z,3.20
2018-07-26T01:54:18.031Z,3.57
2018-07-26T01:56:45.519Z,3.37
2018-07-26T01:59:12.862Z,3.40
2018-07-26T02:01:40.268Z,3.90
2018-07-26T02:04:08.229Z,3.87
2018-07-26T02:06:35.693Z,3.43
2018-07-26T02:09:07.422Z,3.63
2018-07-26T02:11:35.179Z,3.80
2018-07-26T02:14:03.010Z,4.33
2018-07-26T02:16:30.603Z,3.90
2018-07-26T02:18:58.213Z,4.13
2018-07-26T02:21:25.745Z,4.13
2018-07-26T02:23:53.902Z,3.80
2018-07-26T02:26:22.098Z,3.83
2018-07-26T02:28:50.014Z,3.77
2018-07-26T02:31:17.601Z,3.70
2018-07-26T02:33:45.821Z,3.20
2018-07-26T02:36:13.986Z,3.30
2018-07-26T02:38:42.496Z,3.30
2018-07-26T02:41:10.153Z,3.40
2018-07-26T02:43:37.798Z,3.50
2018-07-26T02:46:07.728Z,2.90
2018-07-26T02:48:35.469Z,2.90
2018-07-26T02:51:03.020Z,4.03
2018-07-26T02:53:30.933Z,3.47
2018-07-26T02:56:00.188Z,3.83
2018-07-26T02:58:28.643Z,3.30
2018-07-26T03:00:58.830Z,3.50
2018-07-26T03:03:28.041Z,3.27
2018-07-26T03:05:56.569Z,3.03
2018-07-26T03:08:25.291Z,4.20
2018-07-26T03:10:52.749Z,3.23
2018-07-26T03:13:20.272Z,3.40
2018-07-26T03:15:49.243Z,3.70
2018-07-26T03:18:16.793Z,3.37
2018-07-26T03:20:47.994Z,3.43
2018-07-26T03:23:18.721Z,3.83
2018-07-26T03:25:47.912Z,3.30
2018-07-26T03:28:15.439Z,3.30
2018-07-26T03:30:43.467Z,3.77
2018-07-26T03:33:11.891Z,3.70
2018-07-26T03:35:40.031Z,3.27
2018-07-26T03:38:08.571Z,3.70
2018-07-26T03:40:42.372Z,3.73
2018-07-26T03:43:11.337Z,3.87
2018-07-26T03:45:39.664Z,3.60
2018-07-26T03:48:09.894Z,3.03
2018-07-26T03:50:39.129Z,3.47
2018-07-26T03:53:07.633Z,3.90
2018-07-26T03:55:36.396Z,3.67
2018-07-26T03:58:18.905Z,3.13
2018-07-26T04:00:46.804Z,3.20
2018-07-26T04:03:14.363Z,3.10
2018-07-26T04:05:42.071Z,3.03
2018-07-26T04:08:12.224Z,3.30
2018-07-26T04:10:41.118Z,3.30
2018-07-26T04:13:15.370Z,3.00
2018-07-26T04:15:42.848Z,3.20
2018-07-26T04:18:11.643Z,3.57
2018-07-26T04:20:42.315Z,3.57
2018-07-26T04:23:11.727Z,3.70
2018-07-26T04:25:40.336Z,3.40
2018-07-26T04:28:09.915Z,3.40
2018-07-26T04:30:38.626Z,3.27
2018-07-26T04:33:08.430Z,3.13
2018-07-26T04:35:35.969Z,3.50
2018-07-26T04:38:03.763Z,3.30
2018-07-26T04:40:31.856Z,3.40
2018-07-26T04:42:59.237Z,2.90
2018-07-26T04:45:26.656Z,3.63
2018-07-26T04:47:54.238Z,3.30
2018-07-26T04:50:21.682Z,3.40
2018-07-26T04:52:49.720Z,3.13
2018-07-26T04:55:17.342Z,2.50
2018-07-26T04:57:44.835Z,2.60
2018-07-26T05:00:12.234Z,2.57
2018-07-26T05:02:39.558Z,2.47
2018-07-26T05:05:07.660Z,2.80
2018-07-26T05:07:35.027Z,2.60
2018-07-26T05:10:02.586Z,3.50
2018-07-26T05:12:29.896Z,2.90
2018-07-26T05:14:57.379Z,3.17
2018-07-26T05:17:24.801Z,3.47
2018-07-26T05:19:52.222Z,2.73
2018-07-26T05:22:19.781Z,3.20
2018-07-26T05:24:47.176Z,3.03
2018-07-26T05:27:14.604Z,3.10
2018-07-26T05:29:43.231Z,2.90
2018-07-26T05:32:11.259Z,3.10
2018-07-26T05:34:39.460Z,2.70
2018-07-26T05:37:06.866Z,3.00
2018-07-26T05:39:34.264Z,2.80
2018-07-26T05:42:01.644Z,3.95
2018-07-26T05:44:29.623Z,2.90
2018-07-26T05:46:57.334Z,3.00
2018-07-26T05:49:24.857Z,3.35
2018-07-26T05:51:52.260Z,3.10
2018-07-26T05:54:19.906Z,3.12
2018-07-26T05:56:48.493Z,3.30
2018-07-26T05:59:16.074Z,3.50
2018-07-26T06:01:43.431Z,3.60
2018-07-26T06:04:10.795Z,3.27
2018-07-26T06:06:38.390Z,3.12
2018-07-26T06:09:10.674Z,2.95
2018-07-26T06:11:38.160Z,3.20
2018-07-26T06:14:05.965Z,2.92
2018-07-26T06:16:33.384Z,3.22
2018-07-26T06:19:00.738Z,3.20
2018-07-26T06:21:28.639Z,3.15
2018-07-26T06:23:56.030Z,3.75
2018-07-26T06:26:23.439Z,3.35
2018-07-26T06:28:51.703Z,3.72
2018-07-26T06:31:19.098Z,3.25
2018-07-26T06:33:46.531Z,3.90
2018-07-26T06:36:14.053Z,3.52
2018-07-26T06:38:41.410Z,3.15
2018-07-26T06:41:09.290Z,3.27
2018-07-26T06:43:36.737Z,3.83
2018-07-26T06:46:04.262Z,3.52
2018-07-26T06:48:32.774Z,3.30
2018-07-26T06:51:00.233Z,2.40
2018-07-26T06:53:28.638Z,2.33
2018-07-26T06:55:57.298Z,2.62
2018-07-26T06:58:25.410Z,2.47
2018-07-26T07:00:55.603Z,2.37
2018-07-26T07:03:22.958Z,2.60
2018-07-26T07:05:50.359Z,2.80
2018-07-26T07:08:24.481Z,2.35
2018-07-26T07:10:51.998Z,2.77
2018-07-26T07:13:19.638Z,2.80
2018-07-26T07:15:47.272Z,2.77
2018-07-26T07:18:15.887Z,3.10
2018-07-26T07:20:44.031Z,2.40
2018-07-26T07:23:12.613Z,2.67
2018-07-26T07:25:40.722Z,3.10
2018-07-26T07:28:08.211Z,2.33
2018-07-26T07:30:35.737Z,2.60
2018-07-26T07:33:04.119Z,2.62
2018-07-26T07:35:32.279Z,2.98
2018-07-26T07:38:00.893Z,2.58
2018-07-26T07:40:29.081Z,3.17
2018-07-26T07:42:56.389Z,2.95
2018-07-26T07:45:23.843Z,2.75
2018-07-26T07:47:51.275Z,3.27
2018-07-26T07:50:18.714Z,3.00
2018-07-26T07:52:46.044Z,3.17
2018-07-26T07:55:13.667Z,2.83
2018-07-26T07:57:40.995Z,3.35
2018-07-26T08:00:08.974Z,3.00
2018-07-26T08:02:37.099Z,2.62
2018-07-26T08:05:04.761Z,2.70
2018-07-26T08:07:32.378Z,2.70
2018-07-26T08:09:59.864Z,3.00
2018-07-26T08:12:28.050Z,2.98
2018-07-26T08:14:59.168Z,2.90
2018-07-26T08:17:27.265Z,2.95
2018-07-26T08:19:54.879Z,2.83
2018-07-26T08:22:22.169Z,2.70
2018-07-26T08:24:49.448Z,2.95
2018-07-26T08:27:16.817Z,2.60
2018-07-26T08:29:44.049Z,3.00
2018-07-26T08:32:11.335Z,2.35
2018-07-26T08:34:38.617Z,2.67
2018-07-26T08:37:06.001Z,2.22
2018-07-26T08:39:33.311Z,2.58
2018-07-26T08:42:00.623Z,3.00
2018-07-26T08:44:27.975Z,2.70
2018-07-26T08:46:55.499Z,2.20
2018-07-26T08:49:23.062Z,2.37
2018-07-26T08:52:00.159Z,2.85
2018-07-26T08:54:27.663Z,2.95
2018-07-26T08:56:55.375Z,2.60
2018-07-26T08:59:22.848Z,2.98
2018-07-26T09:01:50.366Z,3.25
2018-07-26T09:04:17.742Z,2.83
2018-07-26T09:06:45.117Z,2.08
2018-07-26T09:09:13.511Z,2.45
2018-07-26T09:11:41.359Z,2.37
2018-07-26T09:14:09.306Z,1.92
2018-07-26T09:16:36.755Z,2.27
2018-07-26T09:19:04.355Z,2.00
2018-07-26T09:21:32.632Z,1.65
2018-07-26T09:24:00.862Z,2.33
2018-07-26T09:26:29.105Z,2.22
2018-07-26T09:28:56.610Z,2.30
2018-07-26T09:31:24.243Z,1.92
2018-07-26T09:33:51.788Z,2.15
2018-07-26T09:36:20.113Z,3.00
2018-07-26T09:38:48.158Z,2.75
2018-07-26T09:41:15.494Z,2.40
2018-07-26T09:43:43.435Z,2.60
2018-07-26T09:46:11.262Z,2.42
2018-07-26T09:48:40.617Z,2.17
2018-07-26T09:51:08.037Z,2.50
2018-07-26T09:53:35.440Z,2.52
2018-07-26T09:56:02.829Z,2.47
2018-07-26T09:58:30.108Z,2.62
2018-07-26T10:01:03.286Z,2.58
2018-07-26T10:03:31.026Z,2.60
2018-07-26T10:05:58.473Z,2.20
2018-07-26T10:08:25.917Z,2.90
2018-07-26T10:10:53.647Z,2.75
2018-07-26T10:13:21.138Z,2.98
2018-07-26T10:15:48.546Z,2.75
2018-07-26T10:18:16.037Z,2.30
2018-07-26T10:20:43.698Z,2.40
2018-07-26T10:23:11.257Z,2.83
2018-07-26T10:25:38.657Z,2.33
2018-07-26T10:28:07.163Z,2.47
2018-07-26T10:30:34.520Z,2.80
2018-07-26T10:33:02.093Z,3.02
2018-07-26T10:35:29.737Z,2.58
2018-07-26T10:37:58.599Z,2.85
2018-07-26T10:40:26.232Z,3.05
2018-07-26T10:42:53.829Z,2.83
2018-07-26T10:45:21.255Z,2.60
2018-07-26T10:47:48.683Z,2.70
2018-07-26T10:50:16.219Z,2.85
2018-07-26T10:52:43.604Z,3.65
2018-07-26T10:55:11.031Z,3.17
2018-07-26T10:57:38.884Z,2.83
2018-07-26T11:00:08.018Z,3.27
2018-07-26T11:02:35.858Z,2.83
2018-07-26T11:05:03.876Z,2.98
2018-07-26T11:07:31.390Z,2.87
2018-07-26T11:09:58.607Z,2.65
2018-07-26T11:12:25.880Z,3.00
2018-07-26T11:14:54.418Z,2.90
2018-07-26T11:17:21.742Z,3.02
2018-07-26T11:19:49.031Z,2.58
2018-07-26T11:22:16.297Z,3.25
2018-07-26T11:24:49.123Z,2.60
2018-07-26T11:27:16.449Z,3.10
2018-07-26T11:29:43.766Z,2.92
2018-07-26T11:32:12.795Z,3.00
2018-07-26T11:34:40.094Z,3.00
2018-07-26T11:37:07.542Z,2.95
2018-07-26T11:39:34.826Z,3.62
2018-07-26T11:42:02.154Z,2.90
2018-07-26T11:44:29.450Z,3.27
2018-07-26T11:46:56.703Z,2.80
2018-07-26T11:49:23.960Z,3.25
2018-07-26T11:51:51.207Z,3.30
2018-07-26T11:54:18.502Z,3.08
2018-07-26T11:56:45.952Z,3.72
2018-07-26T11:59:13.274Z,3.70
2018-07-26T12:01:40.606Z,2.80
2018-07-26T12:04:07.850Z,2.70
2018-07-26T12:06:35.146Z,3.55
2018-07-26T12:09:02.489Z,2.92
2018-07-26T12:11:29.708Z,3.08
2018-07-26T12:13:56.998Z,3.58
2018-07-26T12:16:24.250Z,3.27
2018-07-26T12:18:51.529Z,3.10
2018-07-26T12:21:18.800Z,2.95
2018-07-26T12:23:46.090Z,5.42
2018-07-26T12:26:13.381Z,3.30
2018-07-26T12:28:40.663Z,3.00
2018-07-26T12:31:08.510Z,3.22
2018-07-26T12:33:37.691Z,3.50
2018-07-26T12:36:12.400Z,3.37
2018-07-26T12:38:39.665Z,3.42
2018-07-26T12:41:07.043Z,3.67
2018-07-26T12:43:34.361Z,2.87
2018-07-26T12:46:01.697Z,2.87
2018-07-26T12:48:28.947Z,2.98
2018-07-26T12:50:56.184Z,3.33
2018-07-26T12:53:23.482Z,3.58
2018-07-26T12:55:50.723Z,3.15
2018-07-26T12:58:18.009Z,3.45
2018-07-26T13:00:45.326Z,2.92
2018-07-26T13:03:12.564Z,3.10
2018-07-26T13:05:43.023Z,3.10
2018-07-26T13:08:10.263Z,3.17
2018-07-26T13:10:37.540Z,3.20
2018-07-26T13:13:04.899Z,3.62
2018-07-26T13:15:32.352Z,2.77
2018-07-26T13:18:06.946Z,3.12
2018-07-26T13:20:34.309Z,2.83
2018-07-26T13:23:01.548Z,3.05
2018-07-26T13:25:28.890Z,2.60
2018-07-26T13:27:56.235Z,2.75
2018-07-26T13:30:23.492Z,2.83
2018-07-26T13:32:50.770Z,2.77
2018-07-26T13:35:18.085Z,3.15
2018-07-26T13:37:45.316Z,2.95
2018-07-26T13:40:12.612Z,3.00
2018-07-26T13:42:39.867Z,3.47
2018-07-26T13:45:08.002Z,2.80
2018-07-26T13:47:37.470Z,2.98
2018-07-26T13:50:04.932Z,2.83
2018-07-26T13:52:32.202Z,3.20
2018-07-26T13:54:59.488Z,3.80
2018-07-26T13:57:27.066Z,3.47
2018-07-26T13:59:54.377Z,3.35
2018-07-26T14:02:21.626Z,2.67
2018-07-26T14:04:49.046Z,3.55
2018-07-26T14:07:23.023Z,3.10
2018-07-26T14:09:51.847Z,4.25
2018-07-26T14:12:19.171Z,4.12
2018-07-26T14:14:46.502Z,5.03
2018-07-26T14:17:13.927Z,5.35
2018-07-26T14:19:41.271Z,5.40
2018-07-26T14:22:08.596Z,5.78
2018-07-26T14:24:36.213Z,4.75
2018-07-26T14:27:03.995Z,4.37
2018-07-26T14:29:31.728Z,5.33
2018-07-26T14:31:59.078Z,5.85
2018-07-26T14:34:26.535Z,5.05
2018-07-26T14:36:54.143Z,5.75
2018-07-26T14:39:21.577Z,4.92
2018-07-26T14:41:48.867Z,5.22
2018-07-26T14:44:16.118Z,4.90
2018-07-26T14:46:43.397Z,5.28
2018-07-26T14:49:10.723Z,5.03
2018-07-26T14:51:38.127Z,4.80
2018-07-26T14:54:05.396Z,5.25
2018-07-26T14:56:32.825Z,4.78
2018-07-26T14:59:00.335Z,5.25
2018-07-26T15:01:27.750Z,4.33
2018-07-26T15:03:55.004Z,4.17
2018-07-26T15:06:22.290Z,4.30
2018-07-26T15:08:49.577Z,4.10
2018-07-26T15:11:16.901Z,3.98
2018-07-26T15:13:44.151Z,4.75
2018-07-26T15:16:11.590Z,4.53
2018-07-26T15:18:38.816Z,4.87
2018-07-26T15:21:06.161Z,3.75
2018-07-26T15:23:33.430Z,4.30
2018-07-26T15:26:00.703Z,3.83
2018-07-26T15:28:27.958Z,3.80
2018-07-26T15:30:55.246Z,4.33
2018-07-26T15:33:22.555Z,4.50
2018-07-26T15:35:49.827Z,4.47
2018-07-26T15:38:17.097Z,4.00
2018-07-26T15:40:44.372Z,3.67
2018-07-26T15:43:11.655Z,4.45
2018-07-26T15:45:39.038Z,3.90
2018-07-26T15:48:06.642Z,4.58
2018-07-26T15:50:33.945Z,4.37
2018-07-26T15:53:01.296Z,4.37
2018-07-26T15:55:28.660Z,4.00
2018-07-26T15:57:55.914Z,4.37
2018-07-26T16:00:23.203Z,4.28
2018-07-26T16:02:50.440Z,4.72
2018-07-26T16:05:17.725Z,3.60
2018-07-26T16:07:44.970Z,4.03
2018-07-26T16:10:12.224Z,4.53
2018-07-26T16:12:39.522Z,4.40
2018-07-26T16:15:08.542Z,4.33
2018-07-26T16:17:37.925Z,3.92
2018-07-26T16:20:12.483Z,3.93
2018-07-26T16:22:39.780Z,3.83
2018-07-26T16:25:08.578Z,3.67
2018-07-26T16:27:35.859Z,3.95
2018-07-26T16:30:04.094Z,4.05
2018-07-26T16:32:31.378Z,3.27
2018-07-26T16:34:58.663Z,3.30
2018-07-26T16:37:26.307Z,3.85
2018-07-26T16:39:53.601Z,3.62
2018-07-26T16:42:20.832Z,3.62
2018-07-26T16:44:48.065Z,3.47
2018-07-26T16:47:15.569Z,3.90
2018-07-26T16:49:42.832Z,3.75
2018-07-26T16:52:10.106Z,3.65
2018-07-26T16:54:37.435Z,4.20
2018-07-26T16:57:11.574Z,3.12
2018-07-26T16:59:38.868Z,3.20
2018-07-26T17:02:06.181Z,3.60
2018-07-26T17:04:33.454Z,3.45
2018-07-26T17:07:00.856Z,3.67
2018-07-26T17:09:28.264Z,3.77
2018-07-26T17:11:55.549Z,3.30
2018-07-26T17:14:22.800Z,3.58
2018-07-26T17:16:50.172Z,3.35
2018-07-26T17:22:29.417Z,3.47
2018-07-26T17:24:59.932Z,3.40
2018-07-26T17:27:32.116Z,2.85
2018-07-26T17:29:59.412Z,3.92
2018-07-26T17:32:26.765Z,3.40
2018-07-26T17:34:53.982Z,3.40
2018-07-26T17:37:21.575Z,3.72
2018-07-26T17:39:48.846Z,3.25
2018-07-26T17:42:16.288Z,3.72
2018-07-26T17:44:43.543Z,3.70
2018-07-26T17:47:11.218Z,3.72
2018-07-26T17:49:38.782Z,3.37
2018-07-26T17:52:06.206Z,3.33
2018-07-26T17:54:33.635Z,3.40
2018-07-26T17:57:01.348Z,3.35
2018-07-26T17:59:28.974Z,3.80
2018-07-26T18:01:57.238Z,3.20
2018-07-26T18:04:24.676Z,3.65
2018-07-26T18:06:52.486Z,3.42
2018-07-26T18:09:19.902Z,3.37
2018-07-26T18:11:47.280Z,3.58
2018-07-26T18:14:14.682Z,3.33
2018-07-26T18:16:42.003Z,3.65
2018-07-26T18:19:09.334Z,4.28
2018-07-26T18:21:37.028Z,3.30
2018-07-26T18:24:04.883Z,3.50
2018-07-26T18:26:33.404Z,3.83
2018-07-26T18:29:00.718Z,3.22
2018-07-26T18:31:28.366Z,3.98
2018-07-26T18:33:55.872Z,3.00
2018-07-26T18:36:23.241Z,3.52
2018-07-26T18:38:50.795Z,3.60
2018-07-26T18:41:18.166Z,3.80
2018-07-26T18:43:45.500Z,3.50
2018-07-26T18:46:12.838Z,3.98
2018-07-26T18:48:40.338Z,4.50
2018-07-26T18:51:07.908Z,3.85
2018-07-26T18:53:35.351Z,4.30
2018-07-26T18:56:02.800Z,3.80
2018-07-26T18:58:30.269Z,4.08
2018-07-26T19:00:57.674Z,3.58
2018-07-26T19:03:29.045Z,3.85
2018-07-26T19:05:56.402Z,3.77
2018-07-26T19:08:23.834Z,3.65
2018-07-26T19:10:51.198Z,3.30
2018-07-26T19:13:18.629Z,4.00
2018-07-26T19:15:45.936Z,3.83
2018-07-26T19:18:13.444Z,3.62
2018-07-26T19:20:41.090Z,4.00
2018-07-26T19:23:08.572Z,4.47
2018-07-26T19:25:35.878Z,4.28
2018-07-26T19:28:03.285Z,3.70
2018-07-26T19:30:30.744Z,4.08
2018-07-26T19:32:58.336Z,4.28
2018-07-26T19:35:25.711Z,4.28
2018-07-26T19:37:53.039Z,4.10
2018-07-26T19:40:20.436Z,3.87
2018-07-26T19:42:47.879Z,3.75
2018-07-26T19:45:15.304Z,4.17
2018-07-26T19:47:42.627Z,4.00
2018-07-26T19:50:10.143Z,4.42
2018-07-26T19:52:37.509Z,4.78
2018-07-26T19:55:07.283Z,4.25
2018-07-26T19:57:35.148Z,4.30
2018-07-26T20:00:02.555Z,4.40
2018-07-26T20:02:29.872Z,4.67
2018-07-26T20:04:57.260Z,4.22
2018-07-26T20:07:25.298Z,4.30
2018-07-26T20:09:52.676Z,4.92
2018-07-26T20:12:20.046Z,4.35
2018-07-26T20:14:47.496Z,4.25
2018-07-26T20:17:14.835Z,3.77
2018-07-26T20:19:42.139Z,4.40
2018-07-26T20:22:09.506Z,4.62
2018-07-26T20:24:36.838Z,4.80
2018-07-26T20:27:04.654Z,4.28
2018-07-26T20:29:31.993Z,4.00
2018-07-26T20:31:59.479Z,3.90
2018-07-26T20:34:26.744Z,4.40
2018-07-26T20:36:55.553Z,4.47
2018-07-26T20:39:22.875Z,4.60
2018-07-26T20:41:50.130Z,5.03
2018-07-26T20:44:19.286Z,4.75
2018-07-26T20:46:46.514Z,4.70
2018-07-26T20:49:13.838Z,4.07
2018-07-26T20:51:41.680Z,4.87
2018-07-26T20:54:08.970Z,4.28
2018-07-26T20:56:36.214Z,4.42
2018-07-26T20:59:03.592Z,4.22
2018-07-26T21:01:30.822Z,4.83
2018-07-26T21:03:58.147Z,4.60
2018-07-26T21:06:25.416Z,3.85
2018-07-26T21:08:52.792Z,4.12
2018-07-26T21:11:20.066Z,4.00
2018-07-26T21:13:47.363Z,4.60
2018-07-26T21:16:14.662Z,4.70
2018-07-26T21:18:42.484Z,4.37
2018-07-26T21:21:09.826Z,4.47
2018-07-26T21:23:37.634Z,4.60
2018-07-26T21:26:05.035Z,4.67
2018-07-26T21:28:32.639Z,4.13
2018-07-26T21:31:17.474Z,4.57
2018-07-26T21:33:50.438Z,4.33
2018-07-26T21:36:18.461Z,4.30
2018-07-26T21:38:45.738Z,4.50
2018-07-26T21:41:13.290Z,4.20
2018-07-26T21:43:40.543Z,4.70
2018-07-26T21:46:07.814Z,4.53
2018-07-26T21:48:35.053Z,4.30
2018-07-26T21:51:02.365Z,4.77
2018-07-26T21:53:29.626Z,4.97
2018-07-26T21:55:56.896Z,4.20
2018-07-26T21:58:24.123Z,4.50
2018-07-26T22:00:56.714Z,4.50
2018-07-26T22:03:24.259Z,4.30
2018-07-26T22:05:51.718Z,4.03
2018-07-26T22:08:19.117Z,4.47
2018-07-26T22:10:47.438Z,4.50
2018-07-26T22:13:14.695Z,4.23
2018-07-26T22:15:41.951Z,3.90
2018-07-26T22:18:09.224Z,4.57
2018-07-26T22:20:36.514Z,4.27
2018-07-26T22:23:03.794Z,3.90
2018-07-26T22:25:31.125Z,3.73
2018-07-26T22:27:58.349Z,4.60
2018-07-26T22:30:25.650Z,4.47
2018-07-26T22:32:52.983Z,3.60
2018-07-26T22:35:20.258Z,4.23
2018-07-26T22:37:47.511Z,4.17
2018-07-26T22:40:14.814Z,4.30
2018-07-26T22:42:42.063Z,4.37
2018-07-26T22:45:09.450Z,4.03
2018-07-26T22:47:37.096Z,4.07
2018-07-26T22:50:04.854Z,4.17
2018-07-26T22:52:32.153Z,4.40
2018-07-26T22:54:59.419Z,5.17
2018-07-26T22:57:26.931Z,3.97
2018-07-26T22:59:54.463Z,3.77
2018-07-26T23:02:21.768Z,4.50
2018-07-26T23:04:49.014Z,4.60
2018-07-26T23:07:16.280Z,3.90
2018-07-26T23:09:43.622Z,4.17
2018-07-26T23:12:10.938Z,4.30
2018-07-26T23:14:38.218Z,4.20
2018-07-26T23:17:05.695Z,4.33
2018-07-26T23:19:32.974Z,3.87
2018-07-26T23:22:00.254Z,4.10
2018-07-26T23:24:27.514Z,4.43
2018-07-26T23:26:54.815Z,4.20
2018-07-26T23:29:22.109Z,4.63
2018-07-26T23:31:49.402Z,4.73
2018-07-26T23:34:16.848Z,4.20
2018-07-26T23:36:44.114Z,4.33
2018-07-26T23:39:12.449Z,4.57
2018-07-26T23:41:39.753Z,4.30
2018-07-26T23:44:07.445Z,3.90
2018-07-26T23:46:34.742Z,4.10
2018-07-26T23:49:01.992Z,4.80
2018-07-26T23:51:29.237Z,4.63
2018-07-26T23:53:56.848Z,4.13
2018-07-26T23:56:24.160Z,4.60
2018-07-26T23:58:51.743Z,4.30
